Time;durP1;ratioP1;P1;durP2;ratioP2;P2;SDS_P1;SDS_P2;PMS_P1;PMS_P2;Temp;Humidity;BMP_temperature;BMP_pressure;BME280_temperature;BME280_humidity;BME280_pressure;Samples;Min_cycle;Max_cycle;Signal;HPM_P1;HPM_P2
2022/06/09 00:01:28;;;;;;;;;;;20.10;66.30;;;;;;5044956;28;87455;-45
2022/06/09 00:03:54;;;;;;;;;;;20.10;66.30;;;;;;5044891;28;87106;-45
2022/06/09 00:06:20;;;;;;;;;;;20.10;66.20;;;;;;5044943;28;86892;-45
2022/06/09 00:08:48;;;;;;;;;;;20.10;66.20;;;;;;5045321;27;87384;-45
2022/06/09 00:11:16;;;;;;;;;;;20.00;66.20;;;;;;5043260;28;88291;-45
2022/06/09 00:13:41;;;;;;;;;;;20.00;66.40;;;;;;5047997;28;87079;-45
2022/06/09 00:16:07;;;;;;;;;;;20.00;66.20;;;;;;5043344;28;89234;-45
2022/06/09 00:18:33;;;;;;;;;;;20.00;66.30;;;;;;5044800;28;87105;-45
2022/06/09 00:20:58;;;;;;;;;;;20.00;66.30;;;;;;5044378;27;88709;-45
2022/06/09 00:23:24;;;;;;;;;;;20.00;66.30;;;;;;5044348;28;87888;-45
2022/06/09 00:25:49;;;;;;;;;;;20.00;66.30;;;;;;5044563;28;87105;-46
2022/06/09 00:28:15;;;;;;;;;;;19.90;66.30;;;;;;5044362;27;89179;-45
2022/06/09 00:30:41;;;;;;;;;;;19.90;66.30;;;;;;5044314;28;88128;-45
2022/06/09 00:33:06;;;;;;;;;;;20.00;66.30;;;;;;5045110;28;86420;-45
2022/06/09 00:35:32;;;;;;;;;;;19.90;66.20;;;;;;5046532;27;87947;-45
2022/06/09 00:37:57;;;;;;;;;;;19.90;66.30;;;;;;5044318;28;87118;-46
2022/06/09 00:40:23;;;;;;;;;;;19.90;66.50;;;;;;5043324;28;87875;-46
2022/06/09 00:42:48;;;;;;;;;;;19.80;66.40;;;;;;5043833;28;88254;-46
2022/06/09 00:45:29;;;;;;;;;;;19.90;66.50;;;;;;5044323;28;87086;-45
2022/06/09 00:47:58;;;;;;;;;;;19.90;66.40;;;;;;5044433;28;86833;-45
2022/06/09 00:50:26;;;;;;;;;;;19.80;66.40;;;;;;5043653;28;87855;-45
2022/06/09 00:52:54;;;;;;;;;;;19.80;66.40;;;;;;5044345;28;87211;-44
2022/06/09 00:55:21;;;;;;;;;;;19.80;66.50;;;;;;5043632;27;87447;-45
2022/06/09 00:57:51;;;;;;;;;;;19.80;66.40;;;;;;5046949;28;87309;-46
2022/06/09 01:00:18;;;;;;;;;;;19.80;66.50;;;;;;5044005;28;87088;-46
2022/06/09 01:02:44;;;;;;;;;;;19.70;66.40;;;;;;5043554;27;89162;-45
2022/06/09 01:05:11;;;;;;;;;;;19.80;66.50;;;;;;5043323;28;87971;-45
2022/06/09 01:07:38;;;;;;;;;;;19.70;66.40;;;;;;5044035;27;87935;-46
2022/06/09 01:10:04;;;;;;;;;;;19.70;66.50;;;;;;5043183;28;88274;-45
2022/06/09 01:12:35;;;;;;;;;;;19.70;66.60;;;;;;5043164;28;87110;-45
2022/06/09 01:15:12;;;;;;;;;;;19.70;66.50;;;;;;5043456;27;88906;-45
2022/06/09 01:17:38;;;;;;;;;;;19.70;66.50;;;;;;5043292;28;87994;-46
2022/06/09 01:20:16;;;;;;;;;;;19.70;66.40;;;;;;5046449;28;87151;-45
2022/06/09 01:22:44;;;;;;;;;;;19.70;66.60;;;;;;5043962;28;87307;-46
2022/06/09 01:25:21;;;;;;;;;;;19.70;66.50;;;;;;5043670;28;87115;-45
2022/06/09 01:27:53;;;;;;;;;;;19.70;66.40;;;;;;5043829;28;87433;-47
2022/06/09 01:30:20;;;;;;;;;;;19.70;66.50;;;;;;5042733;28;88841;-45
2022/06/09 01:32:54;;;;;;;;;;;19.70;66.50;;;;;;5043442;28;87097;-46
2022/06/09 01:35:25;;;;;;;;;;;19.70;66.50;;;;;;5043390;27;87482;-46
2022/06/09 01:37:53;;;;;;;;;;;19.60;66.50;;;;;;5043205;28;88005;-46
2022/06/09 01:40:19;;;;;;;;;;;19.60;66.50;;;;;;5046286;28;87104;-47
2022/06/09 01:42:46;;;;;;;;;;;19.70;66.40;;;;;;5043199;28;88163;-46
2022/06/09 01:45:14;;;;;;;;;;;19.60;66.40;;;;;;5043298;28;87207;-45
2022/06/09 01:47:45;;;;;;;;;;;19.60;66.50;;;;;;5043499;27;87689;-45
2022/06/09 01:50:14;;;;;;;;;;;19.60;66.60;;;;;;5041943;28;88165;-45
2022/06/09 01:52:42;;;;;;;;;;;19.50;66.60;;;;;;5043015;28;87148;-45
2022/06/09 01:55:12;;;;;;;;;;;19.50;66.60;;;;;;5042175;27;88832;-45
2022/06/09 01:57:38;;;;;;;;;;;19.50;66.60;;;;;;5042527;28;87327;-45
2022/06/09 02:00:09;;;;;;;;;;;19.50;66.60;;;;;;5043012;28;87077;-47
2022/06/09 02:02:55;;;;;;;;;;;19.50;66.60;;;;;;5045716;28;89136;-45
2022/06/09 02:05:26;;;;;;;;;;;19.50;66.70;;;;;;5034768;28;88442;-44
2022/06/09 02:07:53;;;;;;;;;;;19.50;66.70;;;;;;5043056;27;87110;-46
2022/06/09 02:10:21;;;;;;;;;;;19.50;66.60;;;;;;5042474;28;88292;-45
2022/06/09 02:12:47;;;;;;;;;;;19.50;66.60;;;;;;5043309;28;86507;-46
2022/06/09 02:15:15;;;;;;;;;;;19.50;66.70;;;;;;5042924;27;88601;-46
2022/06/09 02:17:41;;;;;;;;;;;19.40;66.70;;;;;;5042600;28;87186;-46
2022/06/09 02:20:07;;;;;;;;;;;19.40;66.60;;;;;;5042363;28;87891;-45
2022/06/09 02:22:32;;;;;;;;;;;19.40;66.70;;;;;;5042795;27;88476;-45
2022/06/09 02:24:58;;;;;;;;;;;19.40;66.60;;;;;;5045373;28;88112;-45
2022/06/09 02:27:23;;;;;;;;;;;19.40;66.60;;;;;;5042523;28;87401;-45
2022/06/09 02:29:50;;;;;;;;;;;19.40;66.70;;;;;;5042459;28;87714;-45
2022/06/09 02:32:17;;;;;;;;;;;19.40;66.80;;;;;;5042916;28;87004;-45
2022/06/09 02:34:42;;;;;;;;;;;19.40;66.70;;;;;;5042642;27;88725;-45
2022/06/09 02:37:08;;;;;;;;;;;19.30;66.70;;;;;;5042604;28;87271;-45
2022/06/09 02:39:33;;;;;;;;;;;19.30;66.80;;;;;;5042797;28;87138;-46
2022/06/09 02:41:59;;;;;;;;;;;19.30;66.90;;;;;;5042289;28;87076;-45
2022/06/09 02:44:24;;;;;;;;;;;19.30;67.00;;;;;;5041451;28;88994;-45
2022/06/09 02:46:50;;;;;;;;;;;19.30;67.00;;;;;;5045746;28;87011;-45
2022/06/09 02:49:17;;;;;;;;;;;19.30;67.40;;;;;;5042313;28;87266;-45
2022/06/09 02:51:42;;;;;;;;;;;19.30;66.80;;;;;;5042112;28;87109;-47
2022/06/09 02:54:10;;;;;;;;;;;19.30;66.70;;;;;;5042555;28;87435;-45
2022/06/09 02:56:36;;;;;;;;;;;19.30;66.70;;;;;;5041895;28;89464;-45
2022/06/09 02:59:01;;;;;;;;;;;19.30;66.70;;;;;;5042579;28;87780;-45
2022/06/09 03:01:29;;;;;;;;;;;19.20;66.80;;;;;;5043000;27;87388;-45
2022/06/09 03:03:54;;;;;;;;;;;19.20;66.90;;;;;;5045291;28;89364;-46
2022/06/09 03:06:20;;;;;;;;;;;19.20;66.90;;;;;;5045899;28;87142;-45
2022/06/09 03:08:46;;;;;;;;;;;19.20;66.90;;;;;;5047764;28;87911;-46
2022/06/09 03:11:12;;;;;;;;;;;19.20;66.90;;;;;;5045214;28;87182;-47
2022/06/09 03:13:38;;;;;;;;;;;19.20;66.80;;;;;;5045885;27;86957;-44
2022/06/09 03:16:04;;;;;;;;;;;19.20;66.90;;;;;;5045349;28;88002;-45
2022/06/09 03:18:30;;;;;;;;;;;19.20;66.90;;;;;;5045581;28;87071;-45
2022/06/09 03:20:55;;;;;;;;;;;19.20;66.90;;;;;;5045576;28;87576;-45
2022/06/09 03:23:21;;;;;;;;;;;19.20;66.90;;;;;;5043997;28;91062;-46
2022/06/09 03:25:48;;;;;;;;;;;19.20;66.90;;;;;;5046109;28;86537;-45
2022/06/09 03:28:13;;;;;;;;;;;19.20;66.90;;;;;;5045459;27;87934;-45
2022/06/09 03:30:39;;;;;;;;;;;19.20;66.90;;;;;;5048022;28;87988;-45
2022/06/09 03:33:04;;;;;;;;;;;19.10;66.80;;;;;;5044909;28;87965;-45
2022/06/09 03:35:30;;;;;;;;;;;19.10;66.80;;;;;;5044586;28;87958;-46
2022/06/09 03:37:56;;;;;;;;;;;19.10;66.80;;;;;;5045223;28;87092;-45
2022/06/09 03:40:23;;;;;;;;;;;19.10;66.80;;;;;;5045113;27;88652;-45
2022/06/09 03:42:49;;;;;;;;;;;19.10;66.90;;;;;;5045078;28;88136;-45
2022/06/09 03:45:15;;;;;;;;;;;19.10;66.90;;;;;;5045289;28;87138;-45
2022/06/09 03:47:40;;;;;;;;;;;19.10;66.80;;;;;;5045259;28;87581;-45
2022/06/09 03:50:07;;;;;;;;;;;19.00;66.90;;;;;;5048151;28;87271;-46
2022/06/09 03:52:33;;;;;;;;;;;19.10;67.00;;;;;;5045000;28;86858;-45
2022/06/09 03:54:58;;;;;;;;;;;19.10;67.10;;;;;;5044587;28;87672;-45
2022/06/09 03:57:24;;;;;;;;;;;19.00;66.90;;;;;;5044565;28;88041;-46
2022/06/09 03:59:49;;;;;;;;;;;19.00;66.90;;;;;;5045068;28;88465;-46
2022/06/09 04:02:15;;;;;;;;;;;19.00;66.90;;;;;;5044594;28;88109;-45
2022/06/09 04:04:40;;;;;;;;;;;19.00;67.10;;;;;;5045190;28;86687;-45
2022/06/09 04:07:06;;;;;;;;;;;19.00;67.10;;;;;;5044912;28;87481;-46
2022/06/09 04:09:32;;;;;;;;;;;19.00;67.00;;;;;;5044584;28;87586;-46
2022/06/09 04:11:57;;;;;;;;;;;19.00;67.00;;;;;;5047008;28;87073;-46
2022/06/09 04:14:23;;;;;;;;;;;19.00;67.00;;;;;;5044150;27;87454;-45
2022/06/09 04:16:48;;;;;;;;;;;19.00;67.00;;;;;;5044382;28;87088;-45
2022/06/09 04:19:16;;;;;;;;;;;19.00;67.00;;;;;;5044515;27;88888;-45
2022/06/09 04:21:41;;;;;;;;;;;19.00;67.00;;;;;;5043689;28;89199;-45
2022/06/09 04:24:07;;;;;;;;;;;18.90;67.10;;;;;;5044554;28;87369;-45
2022/06/09 04:26:34;;;;;;;;;;;18.90;67.00;;;;;;5044438;27;87396;-46
2022/06/09 04:28:59;;;;;;;;;;;18.90;67.20;;;;;;5044212;28;88092;-45
2022/06/09 04:31:25;;;;;;;;;;;18.90;67.20;;;;;;5044649;28;86913;-46
2022/06/09 04:33:51;;;;;;;;;;;18.90;67.30;;;;;;5047104;27;88938;-45
2022/06/09 04:36:17;;;;;;;;;;;18.90;67.20;;;;;;5044219;28;87165;-46
2022/06/09 04:38:43;;;;;;;;;;;18.90;67.10;;;;;;5044964;27;87489;-45
2022/06/09 04:41:09;;;;;;;;;;;18.90;67.20;;;;;;5043837;28;87887;-45
2022/06/09 04:43:38;;;;;;;;;;;18.80;67.20;;;;;;5044506;27;86985;-46
2022/06/09 04:46:04;;;;;;;;;;;18.80;67.20;;;;;;5042044;28;90461;-46
2022/06/09 04:48:30;;;;;;;;;;;18.80;67.20;;;;;;5044059;28;88119;-46
2022/06/09 04:50:56;;;;;;;;;;;18.90;67.30;;;;;;5044330;28;87030;-45
2022/06/09 04:53:22;;;;;;;;;;;18.90;67.20;;;;;;5044305;27;88810;-46
2022/06/09 04:55:48;;;;;;;;;;;18.80;67.10;;;;;;5046587;28;88254;-45
2022/06/09 04:58:13;;;;;;;;;;;18.80;67.20;;;;;;5044223;27;87397;-45
2022/06/09 05:00:39;;;;;;;;;;;18.90;67.20;;;;;;5043810;28;87990;-45
2022/06/09 05:03:11;;;;;;;;;;;18.90;66.90;;;;;;5044303;28;86358;-48
2022/06/09 05:05:37;;;;;;;;;;;18.90;66.90;;;;;;5043881;27;88326;-45
2022/06/09 05:08:03;;;;;;;;;;;18.90;67.00;;;;;;5043589;28;87898;-45
2022/06/09 05:10:29;;;;;;;;;;;18.90;67.00;;;;;;5043236;28;88185;-45
2022/06/09 05:12:54;;;;;;;;;;;18.90;66.90;;;;;;5043657;28;88180;-45
2022/06/09 05:15:21;;;;;;;;;;;18.90;66.70;;;;;;5043594;28;87127;-45
2022/06/09 05:17:48;;;;;;;;;;;19.00;66.60;;;;;;5046943;28;87105;-45
2022/06/09 05:20:15;;;;;;;;;;;19.00;66.70;;;;;;5042934;28;88689;-45
2022/06/09 05:22:41;;;;;;;;;;;19.00;66.70;;;;;;5043778;28;87095;-45
2022/06/09 05:25:08;;;;;;;;;;;19.00;66.70;;;;;;5043259;27;89121;-46
2022/06/09 05:27:33;;;;;;;;;;;19.00;66.60;;;;;;5043630;28;89088;-45
2022/06/09 05:30:00;;;;;;;;;;;19.10;66.70;;;;;;5043779;28;87084;-46
2022/06/09 05:32:25;;;;;;;;;;;19.00;66.80;;;;;;5043408;27;88735;-46
2022/06/09 05:34:51;;;;;;;;;;;19.00;66.70;;;;;;5042598;28;88236;-45
2022/06/09 05:37:16;;;;;;;;;;;19.00;66.80;;;;;;5043306;28;87254;-46
2022/06/09 05:45:12;;;;;;;;;;;19.00;66.80;;;;;;5041595;27;87211;-45
2022/06/09 05:47:38;;;;;;;;;;;19.10;66.70;;;;;;5042929;28;88286;-45
2022/06/09 05:50:04;;;;;;;;;;;19.10;66.70;;;;;;5043085;28;87092;-45
2022/06/09 05:52:29;;;;;;;;;;;19.10;66.70;;;;;;5043615;27;89326;-45
2022/06/09 05:54:55;;;;;;;;;;;19.10;66.60;;;;;;5042701;28;89213;-45
2022/06/09 05:57:21;;;;;;;;;;;19.10;66.70;;;;;;5043048;28;87108;-46
2022/06/09 05:59:47;;;;;;;;;;;19.10;66.60;;;;;;5045202;27;88111;-45
2022/06/09 06:02:12;;;;;;;;;;;19.10;66.60;;;;;;5043201;28;86984;-45
2022/06/09 06:04:38;;;;;;;;;;;19.10;66.60;;;;;;5042910;27;87319;-48
2022/06/09 06:07:03;;;;;;;;;;;19.10;66.50;;;;;;5042826;28;88071;-45
2022/06/09 06:09:29;;;;;;;;;;;19.10;66.50;;;;;;5043048;28;87104;-46
2022/06/09 06:11:54;;;;;;;;;;;19.10;67.10;;;;;;5042598;28;87360;-46
2022/06/09 06:14:22;;;;;;;;;;;19.10;66.50;;;;;;5042741;28;86998;-46
2022/06/09 06:16:47;;;;;;;;;;;19.10;66.60;;;;;;5043333;28;86317;-46
2022/06/09 06:19:14;;;;;;;;;;;19.10;66.60;;;;;;5042999;28;86941;-46
2022/06/09 06:21:40;;;;;;;;;;;19.10;66.40;;;;;;5045211;28;89176;-46
2022/06/09 06:24:06;;;;;;;;;;;19.10;66.40;;;;;;5042489;27;89242;-47
2022/06/09 06:26:32;;;;;;;;;;;19.10;66.40;;;;;;5042343;28;87916;-45
2022/06/09 06:28:58;;;;;;;;;;;19.20;66.40;;;;;;5043043;28;87085;-46
2022/06/09 06:31:23;;;;;;;;;;;19.20;66.50;;;;;;5042816;28;87491;-46
2022/06/09 06:33:49;;;;;;;;;;;19.20;66.40;;;;;;5042291;28;88049;-47
2022/06/09 06:36:14;;;;;;;;;;;19.10;66.60;;;;;;5041653;28;87145;-45
2022/06/09 06:38:40;;;;;;;;;;;19.10;66.70;;;;;;5042913;28;87400;-47
2022/06/09 06:41:06;;;;;;;;;;;19.10;66.60;;;;;;5042916;28;87072;-47
2022/06/09 06:43:32;;;;;;;;;;;19.10;66.70;;;;;;5045531;28;87052;-46
2022/06/09 06:45:57;;;;;;;;;;;19.20;66.60;;;;;;5042138;28;88119;-47
2022/06/09 06:48:23;;;;;;;;;;;19.10;66.70;;;;;;5041943;28;88056;-45
2022/06/09 06:50:48;;;;;;;;;;;19.20;66.60;;;;;;5042134;27;89691;-46
2022/06/09 06:53:14;;;;;;;;;;;19.20;66.60;;;;;;5042259;28;87169;-46
2022/06/09 06:55:40;;;;;;;;;;;19.20;66.40;;;;;;5042408;28;87013;-47
2022/06/09 06:58:05;;;;;;;;;;;19.20;66.70;;;;;;5042710;27;87153;-46
2022/06/09 07:00:31;;;;;;;;;;;19.10;66.60;;;;;;5042123;28;88157;-45
2022/06/09 07:02:56;;;;;;;;;;;19.20;66.50;;;;;;5042044;28;87707;-45
2022/06/09 07:05:22;;;;;;;;;;;19.20;66.50;;;;;;5045095;28;87489;-46
2022/06/09 07:07:48;;;;;;;;;;;19.20;66.60;;;;;;5042167;28;87092;-46
2022/06/09 07:10:13;;;;;;;;;;;19.20;66.50;;;;;;5042052;28;87990;-49
2022/06/09 07:12:40;;;;;;;;;;;19.20;66.30;;;;;;5041078;28;88892;-45
2022/06/09 07:15:06;;;;;;;;;;;19.20;66.50;;;;;;5042365;28;87071;-47
2022/06/09 07:17:31;;;;;;;;;;;19.20;66.50;;;;;;5042173;28;87595;-45
2022/06/09 07:19:57;;;;;;;;;;;19.20;66.50;;;;;;5041643;28;88206;-46
2022/06/09 07:22:23;;;;;;;;;;;19.20;66.70;;;;;;5042187;28;87071;-46
2022/06/09 07:24:48;;;;;;;;;;;19.20;66.40;;;;;;5042175;27;87827;-47
2022/06/09 07:27:14;;;;;;;;;;;19.20;66.30;;;;;;5044744;28;87267;-47
2022/06/09 07:29:40;;;;;;;;;;;19.20;66.40;;;;;;5042805;28;87511;-46
2022/06/09 07:32:06;;;;;;;;;;;19.20;66.50;;;;;;5041805;28;88151;-45
2022/06/09 07:34:32;;;;;;;;;;;19.30;66.50;;;;;;5041788;28;87092;-46
2022/06/09 07:36:57;;;;;;;;;;;19.20;66.30;;;;;;5040960;28;87964;-48
2022/06/09 07:39:24;;;;;;;;;;;19.20;66.90;;;;;;5041235;28;89979;-45
2022/06/09 07:41:50;;;;;;;;;;;19.30;66.30;;;;;;5041767;28;87081;-46
2022/06/09 07:44:15;;;;;;;;;;;19.30;66.30;;;;;;5042121;28;87683;-47
2022/06/09 07:46:41;;;;;;;;;;;19.30;66.20;;;;;;5041587;28;87914;-45
2022/06/09 07:49:07;;;;;;;;;;;19.30;66.40;;;;;;5045907;27;86858;-45
2022/06/09 07:51:33;;;;;;;;;;;19.30;66.30;;;;;;5044936;28;87589;-45
2022/06/09 07:53:59;;;;;;;;;;;19.30;66.30;;;;;;5045680;28;86397;-47
2022/06/09 07:56:24;;;;;;;;;;;19.30;66.90;;;;;;5045182;28;86894;-47
2022/06/09 07:58:50;;;;;;;;;;;19.30;66.30;;;;;;5044737;28;88055;-48
2022/06/09 08:01:17;;;;;;;;;;;19.30;66.20;;;;;;5044387;28;88035;-46
2022/06/09 08:03:42;;;;;;;;;;;19.30;66.30;;;;;;5044648;27;88334;-46
2022/06/09 08:06:09;;;;;;;;;;;19.30;66.20;;;;;;5044798;28;88193;-45
2022/06/09 08:08:34;;;;;;;;;;;19.30;66.10;;;;;;5047887;28;87385;-46
2022/06/09 08:11:00;;;;;;;;;;;19.30;66.10;;;;;;5044351;28;88356;-46
2022/06/09 08:13:26;;;;;;;;;;;19.30;66.10;;;;;;5044754;28;87000;-45
2022/06/09 08:15:51;;;;;;;;;;;19.30;66.00;;;;;;5044838;27;87376;-46
2022/06/09 08:18:17;;;;;;;;;;;19.30;66.30;;;;;;5044949;28;87435;-46
2022/06/09 08:20:44;;;;;;;;;;;19.30;66.00;;;;;;5044809;28;87695;-46
2022/06/09 08:23:14;;;;;;;;;;;19.40;66.10;;;;;;5044670;27;89124;-46
2022/06/09 08:25:41;;;;;;;;;;;19.40;66.10;;;;;;5043480;28;91902;-46
2022/06/09 08:28:06;;;;;;;;;;;19.40;66.10;;;;;;5044731;28;86992;-46
2022/06/09 08:30:33;;;;;;;;;;;19.40;66.10;;;;;;5047252;27;87428;-47
2022/06/09 08:32:58;;;;;;;;;;;19.40;66.10;;;;;;5044422;28;87066;-45
2022/06/09 08:35:24;;;;;;;;;;;19.40;66.10;;;;;;5044530;28;87348;-46
2022/06/09 08:37:51;;;;;;;;;;;19.40;66.20;;;;;;5043981;28;87273;-47
2022/06/09 08:40:22;;;;;;;;;;;19.40;66.30;;;;;;5044155;28;87083;-46
2022/06/09 08:42:56;;;;;;;;;;;19.40;66.10;;;;;;5044710;27;88075;-45
2022/06/09 08:45:28;;;;;;;;;;;19.40;66.00;;;;;;5044100;28;87838;-46
2022/06/09 08:47:55;;;;;;;;;;;19.40;66.00;;;;;;5044113;28;87125;-45
2022/06/09 08:50:24;;;;;;;;;;;19.40;66.40;;;;;;5043873;27;87879;-47
2022/06/09 08:53:01;;;;;;;;;;;19.50;66.70;;;;;;5046770;28;88123;-47
2022/06/09 08:55:26;;;;;;;;;;;19.40;66.20;;;;;;5043682;27;87707;-47
2022/06/09 08:57:54;;;;;;;;;;;19.50;66.30;;;;;;5043728;28;88488;-46
2022/06/09 09:00:22;;;;;;;;;;;19.50;66.60;;;;;;5043131;27;87109;-47
2022/06/09 09:03:04;;;;;;;;;;;19.50;66.50;;;;;;5043939;27;87495;-46
2022/06/09 09:05:37;;;;;;;;;;;19.50;66.50;;;;;;5043775;28;87968;-48
2022/06/09 09:08:03;;;;;;;;;;;19.50;66.40;;;;;;5044218;28;86469;-46
2022/06/09 09:10:35;;;;;;;;;;;19.50;66.50;;;;;;5044033;28;86968;-48
2022/06/09 09:13:19;;;;;;;;;;;19.50;66.70;;;;;;5043419;28;87718;-48
2022/06/09 09:15:48;;;;;;;;;;;19.50;66.50;;;;;;5046326;27;88199;-47
2022/06/09 09:18:39;;;;;;;;;;;19.50;66.60;;;;;;5043417;28;88015;-46
2022/06/09 09:21:05;;;;;;;;;;;19.50;66.50;;;;;;5041040;28;87054;-48
2022/06/09 09:23:40;;;;;;;;;;;19.50;66.30;;;;;;5043837;28;87444;-47
2022/06/09 09:26:20;;;;;;;;;;;19.60;66.60;;;;;;5042949;28;87982;-46
2022/06/09 09:28:49;;;;;;;;;;;19.60;66.50;;;;;;5043939;28;86917;-46
2022/06/09 09:31:14;;;;;;;;;;;19.60;66.40;;;;;;5043389;27;88762;-45
2022/06/09 09:33:40;;;;;;;;;;;19.60;66.40;;;;;;5043390;28;86368;-46
2022/06/09 09:36:10;;;;;;;;;;;19.70;66.40;;;;;;5043208;28;87069;-46
2022/06/09 09:38:39;;;;;;;;;;;19.60;66.40;;;;;;5045942;27;87363;-46
2022/06/09 09:41:05;;;;;;;;;;;19.70;66.40;;;;;;5042316;28;88076;-49
2022/06/09 09:43:39;;;;;;;;;;;19.70;66.40;;;;;;5043153;27;87406;-45
2022/06/09 09:46:16;;;;;;;;;;;19.70;66.40;;;;;;5043152;28;88341;-46
2022/06/09 09:48:42;;;;;;;;;;;19.70;67.20;;;;;;5043472;28;87027;-46
2022/06/09 09:51:13;;;;;;;;;;;19.80;66.50;;;;;;5043308;28;87481;-47
2022/06/09 09:53:38;;;;;;;;;;;19.80;66.50;;;;;;5042625;28;89342;-47
2022/06/09 09:56:24;;;;;;;;;;;19.80;66.50;;;;;;5043262;28;87128;-47
2022/06/09 09:58:53;;;;;;;;;;;19.80;66.50;;;;;;5046275;28;86732;-47
2022/06/09 10:01:25;;;;;;;;;;;19.90;66.80;;;;;;5042967;28;87174;-46
2022/06/09 10:09:37;;;;;;;;;;;19.90;66.60;;;;;;5043305;28;86922;-45
2022/06/09 10:12:23;;;;;;;;;;;20.00;66.50;;;;;;5041580;27;87213;-47
2022/06/09 10:14:51;;;;;;;;;;;19.90;66.50;;;;;;5042172;28;88054;-47
2022/06/09 10:17:22;;;;;;;;;;;20.00;66.70;;;;;;5042609;28;87187;-49
2022/06/09 10:19:56;;;;;;;;;;;20.00;66.70;;;;;;5042831;28;87516;-45
2022/06/09 10:22:23;;;;;;;;;;;20.00;66.70;;;;;;5045756;28;88131;-46
2022/06/09 10:24:52;;;;;;;;;;;20.00;66.60;;;;;;5043439;27;87248;-48
2022/06/09 10:27:20;;;;;;;;;;;20.00;66.70;;;;;;5042328;28;89401;-45
2022/06/09 10:29:45;;;;;;;;;;;20.10;66.80;;;;;;5042697;28;86966;-47
2022/06/09 10:32:16;;;;;;;;;;;20.10;66.70;;;;;;5041726;27;89113;-47
2022/06/09 10:34:52;;;;;;;;;;;20.10;66.80;;;;;;5042463;28;87194;-47
2022/06/09 10:37:28;;;;;;;;;;;20.10;66.70;;;;;;5042153;28;87077;-47
2022/06/09 10:39:58;;;;;;;;;;;20.10;66.70;;;;;;5042427;27;87159;-45
2022/06/09 10:42:24;;;;;;;;;;;20.10;66.80;;;;;;5041991;28;87917;-46
2022/06/09 10:45:09;;;;;;;;;;;20.20;66.60;;;;;;5045304;28;87083;-48
2022/06/09 10:56:13;;;;;;;;;;;20.30;66.80;;;;;;5040327;28;86982;-46
2022/06/09 10:58:49;;;;;;;;;;;20.30;66.70;;;;;;5041573;28;88009;-47
2022/06/09 11:01:18;;;;;;;;;;;20.40;66.70;;;;;;5042358;28;88440;-45
2022/06/09 11:03:46;;;;;;;;;;;20.40;66.70;;;;;;5041561;28;89800;-45
2022/06/09 11:06:26;;;;;;;;;;;20.40;66.50;;;;;;5042126;28;87034;-49
2022/06/09 11:09:17;;;;;;;;;;;20.40;66.60;;;;;;5045094;27;87493;-46
2022/06/09 11:11:46;;;;;;;;;;;20.40;66.50;;;;;;5038977;28;87035;-46
2022/06/09 11:14:31;;;;;;;;;;;20.40;66.50;;;;;;5041926;27;89004;-47
2022/06/09 11:19:53;;;;;;;;;;;20.50;66.70;;;;;;5042432;28;86908;-46
2022/06/09 11:22:27;;;;;;;;;;;20.50;66.70;;;;;;5042157;28;87486;-45
2022/06/09 11:24:58;;;;;;;;;;;20.50;66.70;;;;;;5044932;28;88092;-46
2022/06/09 11:27:38;;;;;;;;;;;20.50;66.60;;;;;;5045718;28;87063;-46
2022/06/09 11:30:09;;;;;;;;;;;20.60;66.70;;;;;;5045081;28;89070;-46
2022/06/09 11:32:40;;;;;;;;;;;20.50;66.70;;;;;;5048355;28;88170;-45
2022/06/09 11:35:26;;;;;;;;;;;20.60;66.70;;;;;;5045212;27;86961;-46
2022/06/09 11:38:10;;;;;;;;;;;20.60;66.70;;;;;;5044955;28;89408;-47
2022/06/09 11:40:41;;;;;;;;;;;20.60;66.80;;;;;;5045274;28;87049;-47
2022/06/09 11:43:25;;;;;;;;;;;20.60;66.80;;;;;;5045603;27;88919;-48
2022/06/09 11:45:54;;;;;;;;;;;20.60;66.80;;;;;;5045044;27;87960;-46
2022/06/09 11:48:26;;;;;;;;;;;20.60;66.80;;;;;;5045060;28;86919;-47
2022/06/09 11:50:53;;;;;;;;;;;20.60;66.70;;;;;;5044552;27;87834;-49
2022/06/09 11:53:23;;;;;;;;;;;20.60;66.70;;;;;;5044676;28;88158;-48
2022/06/09 11:55:59;;;;;;;;;;;20.60;66.70;;;;;;5047767;28;86962;-47
2022/06/09 11:58:34;;;;;;;;;;;20.60;66.70;;;;;;5045169;28;87992;-46
2022/06/09 12:01:09;;;;;;;;;;;20.60;66.70;;;;;;5044819;28;87019;-46
2022/06/09 12:03:51;;;;;;;;;;;20.70;66.70;;;;;;5044784;27;89575;-48
2022/06/09 12:06:47;;;;;;;;;;;20.70;66.70;;;;;;5044493;28;87751;-46
2022/06/09 12:09:18;;;;;;;;;;;20.70;66.60;;;;;;5045871;28;86421;-47
2022/06/09 12:11:56;;;;;;;;;;;20.80;66.60;;;;;;5044452;28;87062;-47
2022/06/09 12:14:26;;;;;;;;;;;20.80;66.50;;;;;;5044503;28;87973;-45
2022/06/09 12:17:16;;;;;;;;;;;20.80;66.50;;;;;;5047026;28;88452;-48
2022/06/09 12:19:59;;;;;;;;;;;20.80;66.50;;;;;;5044658;28;87769;-45
2022/06/09 12:22:40;;;;;;;;;;;20.90;66.60;;;;;;5044805;28;87236;-46
2022/06/09 12:25:08;;;;;;;;;;;20.90;66.40;;;;;;5044594;28;87433;-47
2022/06/09 12:27:37;;;;;;;;;;;20.90;66.40;;;;;;5043983;28;89513;-45
2022/06/09 12:30:02;;;;;;;;;;;20.90;66.40;;;;;;5044850;28;86992;-47
2022/06/09 12:32:45;;;;;;;;;;;20.90;66.50;;;;;;5044512;27;88938;-46
2022/06/09 12:35:20;;;;;;;;;;;20.90;66.60;;;;;;5043858;27;87166;-46
2022/06/09 12:38:11;;;;;;;;;;;21.00;66.40;;;;;;5042721;28;87055;-47
2022/06/09 12:40:42;;;;;;;;;;;21.00;66.30;;;;;;5044525;28;87440;-45
2022/06/09 12:43:20;;;;;;;;;;;21.10;66.30;;;;;;5043595;28;87897;-45
2022/06/09 12:45:57;;;;;;;;;;;21.10;66.20;;;;;;5044434;28;88489;-47
2022/06/09 12:48:27;;;;;;;;;;;21.10;66.20;;;;;;5043878;28;87031;-45
2022/06/09 12:50:52;;;;;;;;;;;21.20;66.30;;;;;;5044169;28;86791;-47
2022/06/09 12:53:31;;;;;;;;;;;21.20;66.30;;;;;;5044351;27;87007;-47
2022/06/09 12:55:59;;;;;;;;;;;21.20;66.20;;;;;;5044054;28;87629;-47
2022/06/09 12:58:31;;;;;;;;;;;21.20;66.10;;;;;;5043902;28;87184;-47
2022/06/09 13:00:58;;;;;;;;;;;21.20;66.10;;;;;;5044601;28;87341;-47
2022/06/09 13:03:32;;;;;;;;;;;21.20;66.10;;;;;;5046527;28;87854;-46
2022/06/09 13:06:33;;;;;;;;;;;21.30;66.10;;;;;;5043899;27;87333;-45
2022/06/09 13:09:19;;;;;;;;;;;21.30;66.00;;;;;;4999920;28;89115;-46
2022/06/09 13:14:33;;;;;;;;;;;21.40;65.90;;;;;;5042789;28;87543;-46
2022/06/09 13:17:01;;;;;;;;;;;21.40;65.90;;;;;;5043197;28;88788;-47
2022/06/09 13:19:28;;;;;;;;;;;21.40;65.90;;;;;;5043169;28;87062;-46
2022/06/09 13:21:53;;;;;;;;;;;21.40;65.80;;;;;;5043878;28;87791;-48
2022/06/09 13:24:22;;;;;;;;;;;21.40;65.70;;;;;;5043370;28;88029;-46
2022/06/09 13:26:48;;;;;;;;;;;21.40;65.70;;;;;;5047194;28;86366;-45
2022/06/09 13:29:24;;;;;;;;;;;21.50;65.70;;;;;;5043311;28;88020;-46
2022/06/09 13:31:52;;;;;;;;;;;21.60;65.60;;;;;;5043782;28;86952;-46
2022/06/09 13:34:24;;;;;;;;;;;21.60;65.60;;;;;;5042540;27;88767;-46
2022/06/09 13:36:55;;;;;;;;;;;21.60;65.50;;;;;;5042867;28;88010;-48
2022/06/09 13:39:27;;;;;;;;;;;21.60;65.50;;;;;;5043665;28;87016;-48
2022/06/09 13:41:54;;;;;;;;;;;21.60;65.50;;;;;;5043602;27;87365;-46
2022/06/09 13:44:22;;;;;;;;;;;21.60;65.60;;;;;;5043024;28;88514;-46
2022/06/09 13:46:53;;;;;;;;;;;21.60;65.60;;;;;;5043099;27;86957;-49
2022/06/09 13:49:21;;;;;;;;;;;21.70;65.70;;;;;;5045813;27;88898;-46
2022/06/09 13:51:53;;;;;;;;;;;21.70;65.60;;;;;;5043626;28;86384;-46
2022/06/09 13:54:27;;;;;;;;;;;21.70;65.60;;;;;;5043356;28;87161;-46
2022/06/09 13:56:53;;;;;;;;;;;21.70;65.60;;;;;;5043049;28;87955;-47
2022/06/09 13:59:19;;;;;;;;;;;21.70;65.70;;;;;;5042565;28;88055;-45
2022/06/09 14:01:45;;;;;;;;;;;21.70;65.80;;;;;;5042930;27;89786;-46
2022/06/09 14:04:15;;;;;;;;;;;21.70;65.60;;;;;;5042876;28;87228;-45
2022/06/09 14:06:40;;;;;;;;;;;21.80;65.70;;;;;;5042966;28;87125;-48
2022/06/09 14:09:06;;;;;;;;;;;21.80;65.40;;;;;;5043133;27;87557;-46
2022/06/09 14:11:32;;;;;;;;;;;21.80;65.30;;;;;;5045492;28;87823;-45
2022/06/09 14:13:58;;;;;;;;;;;21.90;65.10;;;;;;5043002;27;87460;-48
2022/06/09 14:16:30;;;;;;;;;;;21.90;64.90;;;;;;5042835;28;88345;-46
2022/06/09 14:18:57;;;;;;;;;;;21.90;64.80;;;;;;5042631;28;87032;-46
2022/06/09 14:21:23;;;;;;;;;;;21.90;64.90;;;;;;5042921;27;87553;-46
2022/06/09 14:23:50;;;;;;;;;;;22.00;64.80;;;;;;5041777;28;90241;-46
2022/06/09 14:26:17;;;;;;;;;;;22.00;64.70;;;;;;5042619;28;87131;-46
2022/06/09 14:28:43;;;;;;;;;;;22.00;64.80;;;;;;5042737;27;88950;-47
2022/06/09 14:31:11;;;;;;;;;;;22.00;64.60;;;;;;5045431;27;87991;-46
2022/06/09 14:33:37;;;;;;;;;;;22.00;64.40;;;;;;5042575;27;87594;-47
2022/06/09 14:36:02;;;;;;;;;;;22.10;64.10;;;;;;5042368;28;88041;-46
2022/06/09 14:38:28;;;;;;;;;;;22.10;64.30;;;;;;5042658;28;87134;-46
2022/06/09 14:40:54;;;;;;;;;;;22.10;64.10;;;;;;5043126;27;87351;-45
2022/06/09 14:43:20;;;;;;;;;;;22.10;64.20;;;;;;5042118;28;89839;-45
2022/06/09 14:45:50;;;;;;;;;;;22.10;64.00;;;;;;5042596;28;87115;-47
2022/06/09 14:48:17;;;;;;;;;;;22.20;64.00;;;;;;5042204;28;87990;-46
2022/06/09 14:50:43;;;;;;;;;;;22.20;64.30;;;;;;5042214;28;88353;-47